Time;durP1;ratioP1;P1;durP2;ratioP2;P2;SDS_P1;SDS_P2;PMS_P1;PMS_P2;Temp;Humidity;BMP_temperature;BMP_pressure;BME280_temperature;BME280_humidity;BME280_pressure;Samples;Min_cycle;Max_cycle;Signal;HPM_P1;HPM_P2
2022/05/17 00:00:43;;;;;;;;;;;;;;;27.17;33.67;100906.63;5075893;28;1894;-36
2022/05/17 00:03:08;;;;;;;;;;;;;;;27.10;33.57;100901.94;5076486;28;765;-38
2022/05/17 00:05:33;;;;;;;;;;;;;;;27.12;33.52;100901.78;5076407;28;801;-37
2022/05/17 00:07:59;;;;;;;;;;;;;;;27.16;33.49;100903.06;5076336;28;857;-39
2022/05/17 00:10:25;;;;;;;;;;;;;;;27.17;33.39;100885.88;5076733;28;783;-39
2022/05/17 00:12:51;;;;;;;;;;;;;;;27.20;33.22;100898.16;5075983;28;774;-39
2022/05/17 00:15:17;;;;;;;;;;;;;;;27.21;32.90;100895.28;5057944;28;1274;-39
2022/05/17 00:17:42;;;;;;;;;;;;;;;27.20;32.88;100895.47;5075787;28;971;-39
2022/05/17 00:20:08;;;;;;;;;;;;;;;27.23;32.90;100893.25;5076828;28;774;-39
2022/05/17 00:22:33;;;;;;;;;;;;;;;27.20;32.84;100892.75;5058196;28;1909;-38
2022/05/17 00:24:58;;;;;;;;;;;;;;;27.23;32.69;100893.25;5076890;28;815;-39
2022/05/17 00:27:24;;;;;;;;;;;;;;;27.25;32.84;100895.75;5075364;28;1044;-37
2022/05/17 00:29:50;;;;;;;;;;;;;;;27.23;32.73;100889.69;5076466;28;901;-39
2022/05/17 00:32:15;;;;;;;;;;;;;;;27.24;32.96;100897.63;5075389;28;810;-38
2022/05/17 00:34:40;;;;;;;;;;;;;;;27.24;33.07;100886.81;5076446;28;890;-40
2022/05/17 00:37:05;;;;;;;;;;;;;;;27.23;33.14;100895.09;5076178;28;919;-38
2022/05/17 00:39:31;;;;;;;;;;;;;;;27.25;32.95;100895.75;5076207;28;813;-40
2022/05/17 00:41:57;;;;;;;;;;;;;;;27.26;33.24;100889.31;5076183;28;1909;-40
2022/05/17 00:47:15;;;;;;;;;;;;;;;27.22;33.29;100896.97;5074604;28;860;-40
2022/05/17 00:49:52;;;;;;;;;;;;;;;27.25;33.16;100896.63;5070593;28;782;-40
2022/05/17 00:52:22;;;;;;;;;;;;;;;27.23;33.46;100890.53;5075804;28;829;-38
2022/05/17 00:54:47;;;;;;;;;;;;;;;27.25;33.27;100899.31;5059881;28;814;-39
2022/05/17 00:57:20;;;;;;;;;;;;;;;27.27;33.39;100899.13;5080160;28;851;-37
2022/05/17 00:59:45;;;;;;;;;;;;;;;27.28;33.00;100886.47;5080183;28;835;-38
2022/05/17 01:02:11;;;;;;;;;;;;;;;27.28;33.38;100890.00;5061587;28;1901;-38
2022/05/17 01:04:36;;;;;;;;;;;;;;;27.26;33.06;100892.88;5061569;28;1164;-39
2022/05/17 01:07:03;;;;;;;;;;;;;;;27.29;33.22;100889.00;5079986;28;849;-40
2022/05/17 01:09:28;;;;;;;;;;;;;;;27.30;33.02;100893.38;5079665;28;912;-38
2022/05/17 01:11:53;;;;;;;;;;;;;;;27.27;33.15;100885.63;5079828;28;822;-39
2022/05/17 01:17:03;;;;;;;;;;;;;;;27.25;33.12;100882.25;5064335;28;959;-40
2022/05/17 01:19:28;;;;;;;;;;;;;;;27.29;33.50;100886.28;5078904;28;953;-39
2022/05/17 01:21:53;;;;;;;;;;;;;;;27.27;33.19;100880.22;5079020;28;1901;-34
2022/05/17 01:24:19;;;;;;;;;;;;;;;27.24;33.36;100870.59;5079549;28;941;-38
2022/05/17 01:26:44;;;;;;;;;;;;;;;27.26;33.39;100873.13;5079123;28;1215;-39
2022/05/17 01:29:10;;;;;;;;;;;;;;;27.27;33.36;100872.13;5061405;28;840;-37
2022/05/17 01:31:38;;;;;;;;;;;;;;;27.27;33.01;100872.13;5079114;28;910;-39
2022/05/17 01:34:04;;;;;;;;;;;;;;;27.23;33.36;100868.09;5061574;28;833;-39
2022/05/17 01:36:30;;;;;;;;;;;;;;;27.26;32.99;100863.16;5079086;28;1080;-39
2022/05/17 01:38:55;;;;;;;;;;;;;;;27.27;32.81;100855.91;5079374;28;813;-40
2022/05/17 01:41:21;;;;;;;;;;;;;;;27.30;32.80;100857.41;5078936;28;1914;-41
2022/05/17 01:43:46;;;;;;;;;;;;;;;27.30;33.21;100850.16;5079179;28;778;-41
2022/05/17 01:46:12;;;;;;;;;;;;;;;27.28;33.17;100844.09;5078830;28;823;-41
2022/05/17 01:48:37;;;;;;;;;;;;;;;27.31;32.91;100848.31;5078032;28;841;-41
2022/05/17 01:51:03;;;;;;;;;;;;;;;27.29;32.82;100845.78;5078674;28;930;-41
2022/05/17 01:53:28;;;;;;;;;;;;;;;27.29;32.77;100842.22;5078833;28;861;-41
2022/05/17 01:55:54;;;;;;;;;;;;;;;27.28;32.95;100838.69;5078227;28;821;-38
2022/05/17 01:58:20;;;;;;;;;;;;;;;27.29;32.99;100842.22;5078830;28;876;-40
2022/05/17 02:00:45;;;;;;;;;;;;;;;27.31;32.81;100832.91;5060917;28;1967;-40
2022/05/17 02:03:10;;;;;;;;;;;;;;;27.32;32.81;100831.06;5079061;28;874;-38
2022/05/17 02:05:36;;;;;;;;;;;;;;;27.31;32.73;100829.38;5077981;28;742;-41
2022/05/17 02:08:01;;;;;;;;;;;;;;;27.25;32.89;100833.66;5078611;28;904;-40
2022/05/17 02:10:26;;;;;;;;;;;;;;;27.22;33.20;100831.31;5078976;28;797;-40
2022/05/17 02:12:55;;;;;;;;;;;;;;;27.23;33.07;100833.84;5078207;28;857;-38
2022/05/17 02:15:20;;;;;;;;;;;;;;;27.13;32.96;100830.53;5078538;28;817;-40
2022/05/17 02:17:45;;;;;;;;;;;;;;;27.11;32.94;100822.63;5078552;28;905;-40
2022/05/17 02:20:11;;;;;;;;;;;;;;;27.14;32.99;100826.84;5078642;28;902;-40
2022/05/17 02:22:36;;;;;;;;;;;;;;;27.09;33.29;100823.81;5078309;28;1894;-41
2022/05/17 02:25:01;;;;;;;;;;;;;;;27.10;33.27;100814.69;5077392;28;813;-40
2022/05/17 02:27:27;;;;;;;;;;;;;;;27.06;33.13;100818.78;5078312;28;1143;-40
2022/05/17 02:29:52;;;;;;;;;;;;;;;27.06;33.33;100818.78;5078681;28;826;-37
2022/05/17 02:32:17;;;;;;;;;;;;;;;27.04;33.09;100820.81;5077864;28;829;-41
2022/05/17 02:34:43;;;;;;;;;;;;;;;27.04;33.06;100816.28;5078411;28;817;-40
2022/05/17 02:37:08;;;;;;;;;;;;;;;27.04;32.53;100815.44;5078230;28;869;-40
2022/05/17 02:39:34;;;;;;;;;;;;;;;26.98;32.22;100814.25;5077686;28;860;-40
2022/05/17 02:42:00;;;;;;;;;;;;;;;26.96;32.39;100822.53;5078498;28;1953;-37
2022/05/17 02:44:25;;;;;;;;;;;;;;;26.97;32.28;100826.94;5077859;28;1561;-41
2022/05/17 02:46:50;;;;;;;;;;;;;;;26.97;32.15;100826.94;5077254;28;883;-40
2022/05/17 02:49:15;;;;;;;;;;;;;;;26.97;32.33;100823.38;5078021;28;909;-41
2022/05/17 02:51:41;;;;;;;;;;;;;;;26.97;32.40;100823.38;5077244;28;1621;-40
2022/05/17 02:54:07;;;;;;;;;;;;;;;26.97;32.21;100817.97;5078336;28;822;-40
2022/05/17 02:56:35;;;;;;;;;;;;;;;26.98;32.58;100820.50;5077459;28;880;-39
2022/05/17 02:59:00;;;;;;;;;;;;;;;27.01;32.54;100827.38;5078029;28;792;-40
2022/05/17 03:01:25;;;;;;;;;;;;;;;27.02;32.26;100819.16;5077091;28;1953;-40
2022/05/17 03:03:51;;;;;;;;;;;;;;;26.99;32.55;100816.75;5076970;28;798;-39
2022/05/17 03:06:16;;;;;;;;;;;;;;;26.97;32.49;100829.63;5077914;28;880;-39
2022/05/17 03:08:41;;;;;;;;;;;;;;;26.99;32.62;100827.56;5077559;28;730;-40
2022/05/17 03:11:07;;;;;;;;;;;;;;;26.98;32.42;100828.59;5077384;28;881;-38
2022/05/17 03:13:33;;;;;;;;;;;;;;;26.97;32.80;100826.94;5077768;28;777;-40
2022/05/17 03:15:58;;;;;;;;;;;;;;;26.96;32.58;100827.09;5076731;28;927;-38
2022/05/17 03:18:23;;;;;;;;;;;;;;;26.96;32.61;100819.00;5076158;28;1006;-40
2022/05/17 03:20:48;;;;;;;;;;;;;;;26.97;32.54;100823.38;5077563;28;1955;-39
2022/05/17 03:23:14;;;;;;;;;;;;;;;26.96;32.61;100824.41;5077297;28;857;-40
2022/05/17 03:25:39;;;;;;;;;;;;;;;26.98;32.64;100819.66;5077108;28;1297;-40
2022/05/17 03:28:04;;;;;;;;;;;;;;;27.01;32.74;100821.97;5077284;28;849;-41
2022/05/17 03:30:30;;;;;;;;;;;;;;;27.06;32.42;100826.91;5076387;28;852;-40
2022/05/17 03:32:55;;;;;;;;;;;;;;;27.09;32.41;100827.34;5077125;28;801;-41
2022/05/17 03:35:21;;;;;;;;;;;;;;;27.07;32.54;100834.81;5076892;28;1066;-40
2022/05/17 03:37:46;;;;;;;;;;;;;;;27.10;32.65;100830.91;5076854;28;939;-38
2022/05/17 03:40:11;;;;;;;;;;;;;;;27.03;32.86;100838.88;5076407;28;853;-40
2022/05/17 03:42:37;;;;;;;;;;;;;;;27.15;32.92;100842.00;5075733;28;1917;-39
2022/05/17 03:45:03;;;;;;;;;;;;;;;26.97;33.06;100835.03;5076903;28;770;-39
2022/05/17 03:47:28;;;;;;;;;;;;;;;26.94;33.15;100839.94;5076897;28;808;-39
2022/05/17 03:49:53;;;;;;;;;;;;;;;26.55;33.26;100833.59;5076746;28;853;-41
2022/05/17 03:52:18;;;;;;;;;;;;;;;26.43;34.00;100838.53;5076530;28;809;-41
2022/05/17 03:54:44;;;;;;;;;;;;;;;26.53;33.49;100836.47;5058045;28;1376;-39
2022/05/17 03:57:09;;;;;;;;;;;;;;;26.41;33.41;100836.88;5076930;28;778;-39
2022/05/17 03:59:34;;;;;;;;;;;;;;;26.35;33.49;100839.41;5076670;28;865;-38
2022/05/17 04:02:00;;;;;;;;;;;;;;;26.26;33.76;100852.91;5076635;28;1898;-38
2022/05/17 04:04:25;;;;;;;;;;;;;;;26.28;33.82;100845.50;5076816;28;785;-37
2022/05/17 04:06:51;;;;;;;;;;;;;;;26.23;34.05;100844.31;5076184;28;785;-37
2022/05/17 04:09:16;;;;;;;;;;;;;;;26.54;33.71;100851.66;5075527;28;1068;-39
2022/05/17 04:11:41;;;;;;;;;;;;;;;26.76;33.61;100843.75;5073351;28;1113;-38
2022/05/17 04:14:07;;;;;;;;;;;;;;;26.84;33.25;100843.69;5076171;28;1343;-39
2022/05/17 04:16:32;;;;;;;;;;;;;;;26.88;33.62;100847.72;5074025;28;923;-36
2022/05/17 04:18:58;;;;;;;;;;;;;;;26.92;33.54;100848.22;5076634;28;821;-39
2022/05/17 04:21:24;;;;;;;;;;;;;;;26.88;33.39;100853.13;5076290;28;1906;-40
2022/05/17 04:23:49;;;;;;;;;;;;;;;26.89;33.67;100856.69;5076453;28;798;-38
2022/05/17 04:26:14;;;;;;;;;;;;;;;26.94;33.63;100858.84;5076107;28;1212;-40
2022/05/17 04:28:40;;;;;;;;;;;;;;;26.88;33.68;100861.22;5075763;28;1482;-39
2022/05/17 04:31:05;;;;;;;;;;;;;;;26.86;33.37;100840.84;5075846;28;911;-41
2022/05/17 04:33:30;;;;;;;;;;;;;;;27.00;33.52;100852.72;5076483;28;1079;-40
2022/05/17 04:35:56;;;;;;;;;;;;;;;27.01;33.61;100859.78;5076461;28;762;-40
2022/05/17 04:38:21;;;;;;;;;;;;;;;27.04;34.00;100859.47;5076047;28;952;-39
2022/05/17 04:40:46;;;;;;;;;;;;;;;26.97;33.98;100853.06;5057967;28;949;-41
2022/05/17 04:43:12;;;;;;;;;;;;;;;27.09;33.84;100858.94;5075875;28;1910;-40
2022/05/17 04:45:37;;;;;;;;;;;;;;;27.09;33.82;100857.03;5075762;28;845;-38
2022/05/17 04:48:02;;;;;;;;;;;;;;;27.12;33.65;100859.41;5076218;28;830;-40
2022/05/17 04:50:28;;;;;;;;;;;;;;;27.16;33.65;100853.66;5076460;28;748;-40
2022/05/17 04:52:53;;;;;;;;;;;;;;;27.23;33.34;100860.84;5075730;28;925;-38
2022/05/17 04:55:19;;;;;;;;;;;;;;;27.23;33.53;100860.84;5076160;28;913;-38
2022/05/17 04:57:44;;;;;;;;;;;;;;;27.33;33.60;100855.19;5075772;28;820;-40
2022/05/17 05:00:13;;;;;;;;;;;;;;;27.34;33.87;100862.25;5075808;28;888;-40
2022/05/17 05:02:39;;;;;;;;;;;;;;;27.35;33.60;100858.56;5057088;28;1898;-39
2022/05/17 05:05:04;;;;;;;;;;;;;;;27.35;33.44;100857.69;5076447;28;821;-40
2022/05/17 05:07:30;;;;;;;;;;;;;;;27.33;34.34;100857.88;5076403;28;893;-37
2022/05/17 05:09:55;;;;;;;;;;;;;;;27.28;33.92;100854.88;5076051;28;850;-39
2022/05/17 05:12:20;;;;;;;;;;;;;;;27.34;34.39;100856.84;5075187;28;841;-39
2022/05/17 05:14:45;;;;;;;;;;;;;;;27.29;34.13;100855.72;5076055;28;837;-40
2022/05/17 05:17:11;;;;;;;;;;;;;;;27.28;33.77;100849.47;5075344;28;853;-40
2022/05/17 05:19:36;;;;;;;;;;;;;;;27.25;33.53;100852.56;5076287;28;821;-40
2022/05/17 05:22:02;;;;;;;;;;;;;;;27.25;34.04;100839.91;5076047;28;1886;-40
2022/05/17 05:24:27;;;;;;;;;;;;;;;27.28;34.10;100851.38;5075572;28;799;-40
2022/05/17 05:26:52;;;;;;;;;;;;;;;27.20;34.26;100847.69;5075773;28;1122;-39
2022/05/17 05:29:17;;;;;;;;;;;;;;;27.27;34.61;100853.22;5075739;28;1336;-40
2022/05/17 05:31:43;;;;;;;;;;;;;;;27.17;34.32;100847.22;5075318;28;923;-38
2022/05/17 05:34:08;;;;;;;;;;;;;;;27.27;34.34;100850.50;5075849;28;761;-39
2022/05/17 05:36:33;;;;;;;;;;;;;;;27.30;34.46;100847.44;5075369;28;850;-40
2022/05/17 05:38:59;;;;;;;;;;;;;;;27.36;34.56;100852.13;5075515;28;912;-41
2022/05/17 05:41:24;;;;;;;;;;;;;;;27.32;34.05;100847.25;5076627;28;1969;-40
2022/05/17 05:43:49;;;;;;;;;;;;;;;27.26;34.29;100848.81;5079277;28;916;-42
2022/05/17 05:46:14;;;;;;;;;;;;;;;27.29;34.24;100839.53;5078540;28;853;-40
2022/05/17 05:48:40;;;;;;;;;;;;;;;27.20;34.33;100839.59;5078208;28;814;-43
2022/05/17 05:51:05;;;;;;;;;;;;;;;27.30;34.35;100841.19;5078909;28;818;-41
2022/05/17 05:53:31;;;;;;;;;;;;;;;27.34;34.71;100837.13;5078504;28;1484;-38
2022/05/17 05:56:02;;;;;;;;;;;;;;;27.31;34.21;100842.91;5077729;28;1060;-41
2022/05/17 05:58:30;;;;;;;;;;;;;;;27.41;34.32;100843.47;5078327;28;1266;-39
2022/05/17 06:00:56;;;;;;;;;;;;;;;27.27;34.37;100839.72;5078576;28;1879;-37
2022/05/17 06:03:21;;;;;;;;;;;;;;;27.28;34.65;100843.25;5078597;28;1189;-41
2022/05/17 06:05:46;;;;;;;;;;;;;;;27.29;34.55;100840.38;5077834;28;896;-42
2022/05/17 06:08:13;;;;;;;;;;;;;;;27.41;34.17;100843.47;5078941;28;750;-41
2022/05/17 06:10:38;;;;;;;;;;;;;;;27.23;34.56;100843.78;5078059;28;1053;-38
2022/05/17 06:13:03;;;;;;;;;;;;;;;27.20;34.49;100841.44;5077878;28;918;-40
2022/05/17 06:15:28;;;;;;;;;;;;;;;27.24;34.68;100848.19;5077694;28;753;-40
2022/05/17 06:17:54;;;;;;;;;;;;;;;27.19;32.03;100851.44;5078541;28;853;-39
2022/05/17 06:20:19;;;;;;;;;;;;;;;27.25;31.76;100849.84;5078785;28;794;-41
2022/05/17 06:22:44;;;;;;;;;;;;;;;27.29;33.44;100859.28;5077772;28;1949;-40
2022/05/17 06:25:10;;;;;;;;;;;;;;;27.50;34.37;100857.75;5077369;28;794;-40
2022/05/17 06:27:35;;;;;;;;;;;;;;;27.56;34.08;100851.59;5077864;28;1072;-36
2022/05/17 06:30:00;;;;;;;;;;;;;;;27.47;34.12;100847.31;5077574;28;1009;-40
2022/05/17 06:32:26;;;;;;;;;;;;;;;27.46;33.88;100851.84;5077970;28;923;-38
2022/05/17 06:34:51;;;;;;;;;;;;;;;27.49;34.18;100856.88;5078405;28;939;-40
2022/05/17 06:37:16;;;;;;;;;;;;;;;27.39;33.78;100849.03;5070896;28;926;-40
2022/05/17 06:39:42;;;;;;;;;;;;;;;27.41;33.81;100848.84;5077087;28;998;-39
2022/05/17 06:42:07;;;;;;;;;;;;;;;27.45;34.10;100852.03;5077181;28;1898;-41
2022/05/17 06:44:32;;;;;;;;;;;;;;;27.51;34.37;100852.16;5077592;28;915;-39
2022/05/17 06:47:01;;;;;;;;;;;;;;;27.43;34.31;100849.53;5078012;28;800;-39
2022/05/17 06:49:27;;;;;;;;;;;;;;;27.51;34.32;100845.91;5077609;28;926;-40
2022/05/17 06:51:53;;;;;;;;;;;;;;;27.65;33.92;100846.09;5077037;28;837;-40
2022/05/17 06:54:19;;;;;;;;;;;;;;;27.60;33.70;100836.72;5076815;28;860;-35
2022/05/17 06:56:44;;;;;;;;;;;;;;;27.59;33.45;100842.28;5077939;28;881;-39
2022/05/17 06:59:09;;;;;;;;;;;;;;;27.62;33.67;100837.38;5077510;28;818;-37
2022/05/17 07:01:35;;;;;;;;;;;;;;;27.59;33.86;100837.72;5076850;28;1889;-40
2022/05/17 07:04:01;;;;;;;;;;;;;;;27.61;33.93;100842.97;5077401;28;869;-39
2022/05/17 07:06:26;;;;;;;;;;;;;;;27.69;33.73;100842.91;5073901;28;985;-39
2022/05/17 07:08:52;;;;;;;;;;;;;;;27.69;34.13;100842.06;5066334;28;1357;-39
2022/05/17 07:14:01;;;;;;;;;;;;;;;27.41;31.22;100835.34;5077150;28;1084;-39
2022/05/17 07:16:26;;;;;;;;;;;;;;;27.67;32.87;100836.81;5076393;28;938;-38
2022/05/17 07:18:51;;;;;;;;;;;;;;;27.56;34.77;100840.78;5047708;28;1203;-40
2022/05/17 07:21:17;;;;;;;;;;;;;;;27.57;35.97;100836.22;5070520;28;1953;-38
2022/05/17 07:23:42;;;;;;;;;;;;;;;27.53;35.41;100840.34;5075326;28;1286;-38
2022/05/17 07:26:08;;;;;;;;;;;;;;;27.66;35.51;100837.81;5077031;28;1188;-39
2022/05/17 07:28:37;;;;;;;;;;;;;;;27.70;34.39;100832.91;5074405;28;1249;-40
2022/05/17 07:31:03;;;;;;;;;;;;;;;27.70;34.60;100838.31;5073098;28;1263;-41
2022/05/17 07:33:28;;;;;;;;;;;;;;;27.62;34.72;100834.66;5076806;28;873;-39
2022/05/17 07:35:53;;;;;;;;;;;;;;;27.68;35.34;100837.63;5076681;28;749;-40
2022/05/17 07:38:19;;;;;;;;;;;;;;;27.73;34.67;100836.09;5074490;28;1099;-39
2022/05/17 07:40:44;;;;;;;;;;;;;;;27.81;35.17;100839.75;5067741;28;1215;-39
2022/05/17 07:43:10;;;;;;;;;;;;;;;27.85;34.89;100836.47;5070447;28;1906;-38
2022/05/17 07:45:35;;;;;;;;;;;;;;;27.89;34.79;100836.94;5071244;28;1306;-39
2022/05/17 07:48:02;;;;;;;;;;;;;;;27.87;34.56;100828.19;5066258;28;1238;-38
2022/05/17 07:50:27;;;;;;;;;;;;;;;27.87;34.77;100834.44;5067835;28;1191;-35
2022/05/17 07:52:52;;;;;;;;;;;;;;;27.92;34.86;100841.13;5068015;28;1148;-37
2022/05/17 07:55:18;;;;;;;;;;;;;;;27.92;35.19;100836.56;5070260;28;1139;-34
2022/05/17 07:57:44;;;;;;;;;;;;;;;27.92;34.95;100841.97;5067517;28;1104;-39
2022/05/17 08:00:09;;;;;;;;;;;;;;;27.94;35.13;100841.78;5069252;28;1074;-36
2022/05/17 08:02:35;;;;;;;;;;;;;;;27.92;35.14;100835.72;5066890;28;1977;-37
2022/05/17 08:05:00;;;;;;;;;;;;;;;27.95;35.44;100833.50;5067704;28;1073;-39
2022/05/17 08:07:25;;;;;;;;;;;;;;;27.90;35.16;100833.22;5073175;28;1294;-39
2022/05/17 08:09:51;;;;;;;;;;;;;;;27.94;35.05;100833.69;5068554;28;1215;-36
2022/05/17 08:12:16;;;;;;;;;;;;;;;27.94;35.05;100826.41;5066699;28;1040;-38
2022/05/17 08:14:41;;;;;;;;;;;;;;;27.97;35.27;100827.91;5067438;28;1303;-40
2022/05/17 08:17:08;;;;;;;;;;;;;;;27.97;34.64;100831.44;5074080;28;1326;-41
2022/05/17 08:19:34;;;;;;;;;;;;;;;28.01;35.02;100822.97;5070781;28;1302;-37
2022/05/17 08:21:59;;;;;;;;;;;;;;;28.01;34.91;100818.38;5069624;28;1897;-37
2022/05/17 08:24:25;;;;;;;;;;;;;;;27.97;34.58;100820.63;5071469;28;1235;-38
2022/05/17 08:29:34;;;;;;;;;;;;;;;27.96;34.50;100805.41;5076239;28;700;-40
2022/05/17 08:34:43;;;;;;;;;;;;;;;28.14;33.91;100806.06;5074877;28;1323;-36
2022/05/17 08:37:09;;;;;;;;;;;;;;;28.11;34.33;100800.00;5076037;28;722;-39
2022/05/17 08:39:34;;;;;;;;;;;;;;;28.07;34.73;100801.41;5074320;28;1044;-37
2022/05/17 08:42:08;;;;;;;;;;;;;;;28.06;34.84;100801.59;5075838;28;1913;-36
2022/05/17 08:44:33;;;;;;;;;;;;;;;27.64;34.62;100734.50;5052577;28;1272;-39
2022/05/17 08:47:05;;;;;;;;;;;;;;;28.03;34.53;100794.69;5073174;28;987;-36
2022/05/17 08:49:33;;;;;;;;;;;;;;;28.08;34.70;100792.28;5070004;28;782;-39
2022/05/17 08:52:12;;;;;;;;;;;;;;;28.08;34.57;100796.81;5057573;28;1379;-39
2022/05/17 08:54:37;;;;;;;;;;;;;;;28.10;34.58;100792.06;5073906;28;1044;-39
2022/05/17 08:57:07;;;;;;;;;;;;;;;28.09;34.60;100788.53;5074761;28;987;-35
2022/05/17 08:59:35;;;;;;;;;;;;;;;28.18;34.04;100797.38;5071721;28;1152;-38
2022/05/17 09:02:05;;;;;;;;;;;;;;;28.09;34.09;100799.34;5074911;28;1956;-39
2022/05/17 09:04:30;;;;;;;;;;;;;;;28.18;34.49;100802.78;5076177;28;745;-39
2022/05/17 09:07:02;;;;;;;;;;;;;;;28.19;34.15;100792.81;5074462;28;842;-39
2022/05/17 09:09:31;;;;;;;;;;;;;;;28.22;33.64;100806.81;5057009;28;1009;-39
2022/05/17 09:12:04;;;;;;;;;;;;;;;28.17;34.25;100787.59;5056274;28;1342;-37
2022/05/17 09:14:30;;;;;;;;;;;;;;;28.16;34.03;100795.91;5055266;28;1239;-39
2022/05/17 09:17:12;;;;;;;;;;;;;;;28.19;34.17;100793.66;5077829;28;900;-39
2022/05/17 09:19:37;;;;;;;;;;;;;;;28.21;34.47;100790.78;5078689;28;1100;-38
2022/05/17 09:22:03;;;;;;;;;;;;;;;28.20;33.66;100789.91;5077211;28;1890;-38
2022/05/17 09:24:30;;;;;;;;;;;;;;;28.13;34.37;100785.47;5079049;28;1373;-39
2022/05/17 09:27:06;;;;;;;;;;;;;;;28.15;33.97;100784.25;5078640;28;1290;-39
2022/05/17 09:29:40;;;;;;;;;;;;;;;28.07;34.00;100782.50;5079700;28;1040;-39
2022/05/17 09:32:07;;;;;;;;;;;;;;;28.13;34.25;100780.06;5077278;28;1077;-37
2022/05/17 09:34:36;;;;;;;;;;;;;;;28.12;34.30;100781.91;5078408;28;1131;-37
2022/05/17 09:37:05;;;;;;;;;;;;;;;28.11;34.26;100778.38;5076400;28;1286;-36
2022/05/17 09:39:30;;;;;;;;;;;;;;;28.18;33.96;100772.19;5078461;28;1274;-37
2022/05/17 09:41:57;;;;;;;;;;;;;;;28.17;34.07;100774.06;5078727;28;1910;-38
2022/05/17 09:44:23;;;;;;;;;;;;;;;28.20;33.90;100778.25;5060653;28;1358;-37
2022/05/17 09:46:49;;;;;;;;;;;;;;;28.18;33.98;100770.34;5078706;28;1056;-39
2022/05/17 09:55:06;;;;;;;;;;;;;;;28.16;33.91;100761.56;5078380;28;1020;-37
2022/05/17 09:57:32;;;;;;;;;;;;;;;28.23;33.93;100759.78;5078545;28;1511;-38
2022/05/17 10:00:08;;;;;;;;;;;;;;;28.29;33.71;100758.19;5060147;28;1152;-39
2022/05/17 10:02:38;;;;;;;;;;;;;;;28.38;33.35;100752.69;5072083;28;1906;-36
2022/05/17 10:05:24;;;;;;;;;;;;;;;28.36;33.49;100748.31;5077862;28;852;-40
2022/05/17 10:07:54;;;;;;;;;;;;;;;28.43;33.30;100750.22;5077845;28;981;-39
2022/05/17 10:10:27;;;;;;;;;;;;;;;28.32;33.28;100743.44;5078821;28;766;-38
2022/05/17 10:12:52;;;;;;;;;;;;;;;28.27;33.00;100745.88;5077855;28;1119;-34
2022/05/17 10:15:19;;;;;;;;;;;;;;;28.18;29.64;100737.88;5060167;28;1200;-37
2022/05/17 10:17:52;;;;;;;;;;;;;;;28.01;25.75;100747.25;5078208;28;817;-36
2022/05/17 10:20:27;;;;;;;;;;;;;;;27.63;25.38;100744.47;5060731;28;829;-38
2022/05/17 10:22:55;;;;;;;;;;;;;;;27.57;25.49;100739.81;5060688;28;1898;-37
2022/05/17 10:25:47;;;;;;;;;;;;;;;27.50;25.77;100736.16;5078253;28;1024;-37
2022/05/17 10:28:17;;;;;;;;;;;;;;;27.47;26.07;100745.50;5069305;28;1715;-39
2022/05/17 10:30:48;;;;;;;;;;;;;;;27.43;26.21;100740.63;5059977;28;849;-39
2022/05/17 10:33:19;;;;;;;;;;;;;;;27.35;26.00;100745.09;5078681;28;794;-37
2022/05/17 10:35:49;;;;;;;;;;;;;;;27.38;25.95;100733.94;5060183;28;880;-38
2022/05/17 10:38:18;;;;;;;;;;;;;;;27.33;25.93;100736.34;5078505;28;865;-38
2022/05/17 10:40:48;;;;;;;;;;;;;;;27.30;25.49;100725.06;5059681;28;1175;-37
2022/05/17 10:43:18;;;;;;;;;;;;;;;27.25;25.14;100733.72;5077503;28;1902;-37
2022/05/17 10:45:48;;;;;;;;;;;;;;;27.16;24.78;100721.34;5060694;28;845;-37
2022/05/17 10:48:17;;;;;;;;;;;;;;;27.17;24.55;100717.59;5060353;28;785;-39
2022/05/17 10:51:01;;;;;;;;;;;;;;;27.35;24.82;100714.53;5078169;28;853;-38
2022/05/17 10:53:26;;;;;;;;;;;;;;;27.54;24.55;100713.16;5072680;28;834;-39
2022/05/17 10:56:10;;;;;;;;;;;;;;;27.69;25.10;100704.22;5074549;28;954;-42
2022/05/17 10:58:41;;;;;;;;;;;;;;;27.86;27.63;100713.78;5074417;28;1231;-35
2022/05/17 11:01:16;;;;;;;;;;;;;;;28.02;27.57;100703.81;5059609;28;1897;-35
2022/05/17 11:03:59;;;;;;;;;;;;;;;28.16;28.40;100698.53;5077495;28;869;-39
2022/05/17 11:06:27;;;;;;;;;;;;;;;28.24;28.88;100703.84;5071739;28;929;-38
2022/05/17 11:09:02;;;;;;;;;;;;;;;28.27;28.81;100700.75;5076766;28;915;-38
2022/05/17 11:11:28;;;;;;;;;;;;;;;28.31;29.13;100698.50;5072439;28;792;-37
2022/05/17 11:13:57;;;;;;;;;;;;;;;28.35;29.03;100697.09;5076893;28;861;-39
2022/05/17 11:16:22;;;;;;;;;;;;;;;28.39;29.21;100692.16;5059204;28;878;-32
2022/05/17 11:18:51;;;;;;;;;;;;;;;28.48;29.37;100691.81;5077395;28;773;-39
2022/05/17 11:21:18;;;;;;;;;;;;;;;28.54;29.16;100694.78;5059277;28;1905;-38
2022/05/17 11:23:48;;;;;;;;;;;;;;;28.53;29.21;100695.81;5059054;28;849;-39
2022/05/17 11:26:50;;;;;;;;;;;;;;;28.52;28.12;100686.00;5077091;28;1077;-36
2022/05/17 11:29:21;;;;;;;;;;;;;;;28.54;28.83;100686.66;4976373;28;1128;-39
2022/05/17 11:31:46;;;;;;;;;;;;;;;28.57;29.26;100686.28;5043150;28;952;-38
2022/05/17 11:34:26;;;;;;;;;;;;;;;28.58;29.36;100686.06;5076448;28;869;-33
2022/05/17 11:37:00;;;;;;;;;;;;;;;28.58;29.56;100679.81;5071526;28;1059;-35
2022/05/17 11:39:32;;;;;;;;;;;;;;;28.68;29.86;100680.31;5076267;28;776;-34
2022/05/17 11:42:24;;;;;;;;;;;;;;;28.69;29.92;100676.59;5076670;28;1969;-37
2022/05/17 11:44:50;;;;;;;;;;;;;;;28.75;29.67;100674.97;5076091;28;836;-33
2022/05/17 11:47:30;;;;;;;;;;;;;;;28.70;29.93;100674.72;5058184;28;1018;-39
2022/05/17 11:50:11;;;;;;;;;;;;;;;28.73;30.21;100668.91;5070582;28;852;-38
2022/05/17 11:52:36;;;;;;;;;;;;;;;28.68;29.89;100665.94;5076702;28;832;-40
2022/05/17 11:55:02;;;;;;;;;;;;;;;28.76;30.26;100660.38;5076203;28;906;-36
2022/05/17 11:57:27;;;;;;;;;;;;;;;28.84;30.12;100657.53;5076390;28;849;-38
2022/05/17 11:59:54;;;;;;;;;;;;;;;28.87;30.06;100656.31;5076376;28;892;-34
2022/05/17 12:02:19;;;;;;;;;;;;;;;28.82;30.17;100656.06;5075871;28;1893;-34
2022/05/17 12:04:45;;;;;;;;;;;;;;;28.82;30.19;100647.94;5057858;28;968;-33
2022/05/17 12:07:30;;;;;;;;;;;;;;;28.91;30.38;100644.03;5075541;28;1230;-32
2022/05/17 12:09:57;;;;;;;;;;;;;;;28.90;30.37;100634.25;5075156;28;1223;-37
2022/05/17 12:12:27;;;;;;;;;;;;;;;28.93;30.44;100635.72;5076129;28;903;-37
2022/05/17 12:15:05;;;;;;;;;;;;;;;28.95;30.42;100633.66;5076414;28;840;-36
2022/05/17 12:17:35;;;;;;;;;;;;;;;28.95;30.77;100628.25;5074578;28;830;-37
2022/05/17 12:20:03;;;;;;;;;;;;;;;28.90;30.56;100630.72;5056450;28;1073;-34
2022/05/17 12:22:29;;;;;;;;;;;;;;;28.88;30.80;100616.56;5067166;28;1968;-34
2022/05/17 12:24:57;;;;;;;;;;;;;;;28.92;30.98;100617.81;5068710;28;1286;-35
2022/05/17 12:27:22;;;;;;;;;;;;;;;28.90;30.78;100618.03;5073398;28;1282;-35
2022/05/17 12:32:38;;;;;;;;;;;;;;;28.90;31.12;100611.75;5071756;28;981;-32
2022/05/17 12:35:05;;;;;;;;;;;;;;;28.96;30.79;100606.38;5074771;28;1214;-39
2022/05/17 12:37:30;;;;;;;;;;;;;;;28.95;30.98;100602.00;5074011;28;1243;-32
2022/05/17 12:45:25;;;;;;;;;;;;;;;28.93;31.41;100592.41;5075807;28;911;-36
2022/05/17 12:47:51;;;;;;;;;;;;;;;29.03;31.15;100598.31;5075994;28;778;-35
2022/05/17 12:50:18;;;;;;;;;;;;;;;29.04;31.07;100588.34;5058313;28;1561;-32
2022/05/17 12:52:44;;;;;;;;;;;;;;;29.02;31.16;100588.53;5061416;28;821;-36
2022/05/17 12:55:30;;;;;;;;;;;;;;;29.03;31.26;100581.25;5070271;28;1242;-37
2022/05/17 12:57:55;;;;;;;;;;;;;;;28.56;27.25;100587.19;5072254;28;1499;-35
2022/05/17 13:00:29;;;;;;;;;;;;;;;28.48;27.49;100580.88;5076812;28;1068;-37
2022/05/17 13:02:59;;;;;;;;;;;;;;;28.74;29.16;100573.16;5074995;28;1901;-35
2022/05/17 13:05:25;;;;;;;;;;;;;;;28.88;30.42;100571.34;5079435;28;1266;-37
2022/05/17 13:08:06;;;;;;;;;;;;;;;28.92;30.91;100569.09;5074068;28;1281;-32
2022/05/17 13:10:31;;;;;;;;;;;;;;;28.95;30.70;100563.25;5069173;28;1274;-34
2022/05/17 13:12:57;;;;;;;;;;;;;;;28.95;30.37;100566.81;5070619;28;1279;-35
2022/05/17 13:15:22;;;;;;;;;;;;;;;28.95;30.73;100560.56;5068213;28;1235;-33
2022/05/17 13:17:48;;;;;;;;;;;;;;;28.99;30.88;100561.03;5071663;28;1326;-34
2022/05/17 13:20:40;;;;;;;;;;;;;;;28.98;30.84;100549.34;5052921;28;1255;-33